Time;durP1;ratioP1;P1;durP2;ratioP2;P2;SDS_P1;SDS_P2;PMS_P1;PMS_P2;Temp;Humidity;BMP_temperature;BMP_pressure;BME280_temperature;BME280_humidity;BME280_pressure;Samples;Min_cycle;Max_cycle;Signal;HPM_P1;HPM_P2
2022/04/11 00:01:03;;;;;;;6.77;2.40;;;7.80;58.80;;;10.68;46.50;101927.19;5042753;28;20232;-61
2022/04/11 00:03:31;;;;;;;4.60;2.13;;;7.80;58.90;;;10.64;46.81;101925.81;5038475;28;20201;-60
2022/04/11 00:05:58;;;;;;;3.30;2.07;;;7.80;58.50;;;10.59;47.06;101921.97;5048795;28;20277;-58
2022/04/11 00:08:25;;;;;;;4.77;2.20;;;7.80;58.90;;;10.58;47.02;101925.56;5054241;28;20244;-60
2022/04/11 00:10:54;;;;;;;4.47;2.13;;;7.80;58.90;;;10.56;46.79;101923.06;5054352;28;20194;-59
2022/04/11 00:13:22;;;;;;;5.57;2.10;;;7.80;58.90;;;10.54;47.10;101922.41;5054187;28;20197;-61
2022/04/11 00:15:50;;;;;;;4.17;2.03;;;7.70;58.60;;;10.52;46.76;101920.88;5054939;28;20650;-60
2022/04/11 00:18:17;;;;;;;6.67;2.07;;;7.70;58.80;;;10.54;47.47;101929.44;5054589;28;20221;-60
2022/04/11 00:20:47;;;;;;;5.80;2.50;;;7.70;59.00;;;10.56;46.98;101927.50;5054325;28;20627;-60
2022/04/11 00:23:14;;;;;;;6.40;2.53;;;7.70;59.10;;;10.58;47.27;101923.75;5052401;28;20205;-60
2022/04/11 00:25:42;;;;;;;4.73;2.10;;;7.70;59.30;;;10.59;46.97;101928.06;5053942;28;20198;-61
2022/04/11 00:28:11;;;;;;;3.87;1.97;;;7.70;59.60;;;10.58;46.47;101926.38;5052373;28;20245;-61
2022/04/11 00:30:38;;;;;;;5.23;1.90;;;7.60;59.40;;;10.57;46.57;101924.75;5053857;28;20193;-60
2022/04/11 00:33:06;;;;;;;5.43;2.00;;;7.60;59.40;;;10.56;47.01;101922.25;5053892;28;20189;-58
2022/04/11 00:35:33;;;;;;;4.50;2.20;;;7.60;59.50;;;10.54;47.24;101924.19;5053791;28;20190;-60
2022/04/11 00:38:01;;;;;;;7.93;2.50;;;7.60;59.60;;;10.52;46.66;101924.34;5050871;28;20209;-61
2022/04/11 00:40:28;;;;;;;6.10;2.20;;;7.50;59.60;;;10.49;46.37;101919.38;5033706;28;20551;-61
2022/04/11 00:42:55;;;;;;;7.30;2.50;;;7.50;59.70;;;10.48;47.06;101923.00;5033910;28;20229;-58
2022/04/11 00:45:24;;;;;;;4.23;2.10;;;7.50;59.80;;;10.47;47.17;101926.56;5033753;28;20722;-61
2022/04/11 00:47:52;;;;;;;4.63;2.00;;;7.50;59.80;;;10.46;47.15;101927.53;5033636;28;20297;-61
2022/04/11 00:50:19;;;;;;;5.53;2.70;;;7.50;59.90;;;10.46;46.97;101927.53;5033727;28;20248;-60
2022/04/11 00:52:50;;;;;;;4.03;1.70;;;7.50;59.90;;;10.46;46.74;101926.75;5033596;28;20212;-61
2022/04/11 00:55:23;;;;;;;6.30;2.07;;;7.50;60.10;;;10.47;46.71;101923.94;5042791;28;20197;-61
2022/04/11 00:57:51;;;;;;;6.00;2.50;;;7.50;60.20;;;10.50;46.98;101928.94;5053240;28;20293;-60
2022/04/11 01:00:19;;;;;;;6.20;2.53;;;7.50;60.40;;;10.51;47.03;101925.31;5053517;28;20185;-60
2022/04/11 01:02:48;;;;;;;8.30;2.30;;;7.50;60.30;;;10.52;46.77;101921.72;5053746;28;20194;-61
2022/04/11 01:05:15;;;;;;;4.57;2.03;;;7.50;60.30;;;10.52;47.41;101921.72;5053526;28;20205;-60
2022/04/11 01:07:43;;;;;;;7.23;3.10;;;7.50;60.50;;;10.54;47.64;101919.75;5053308;28;20212;-59
2022/04/11 01:10:10;;;;;;;6.80;2.70;;;7.50;61.00;;;10.55;46.83;101921.44;5053587;28;20182;-60
2022/04/11 01:12:40;;;;;;;4.43;2.27;;;7.50;60.70;;;10.55;47.62;101925.88;5041934;28;20273;-60
2022/04/11 01:15:09;;;;;;;6.23;2.33;;;7.50;60.90;;;10.54;47.64;101927.66;5033915;28;20187;-60
2022/04/11 01:17:38;;;;;;;5.63;2.50;;;7.50;60.70;;;10.53;47.25;101923.34;5032802;28;20214;-60
2022/04/11 01:20:10;;;;;;;3.70;2.20;;;7.50;60.80;;;10.51;47.26;101927.94;5033249;28;20297;-60
2022/04/11 01:22:40;;;;;;;5.30;2.27;;;7.50;60.80;;;10.49;46.93;101927.25;5033176;28;20281;-58
2022/04/11 01:25:10;;;;;;;5.93;2.60;;;7.50;60.60;;;10.51;47.80;101924.47;5033776;28;20195;-60
2022/04/11 01:27:38;;;;;;;7.87;2.50;;;7.50;61.00;;;10.55;47.41;101931.97;5033639;28;20233;-59
2022/04/11 01:30:09;;;;;;;4.60;2.57;;;7.50;60.90;;;10.60;47.14;101927.06;5049512;28;20571;-59
2022/04/11 01:32:38;;;;;;;5.03;2.37;;;7.50;60.80;;;10.65;48.04;101930.09;5053277;28;20224;-60
2022/04/11 01:35:18;;;;;;;6.47;2.40;;;7.60;61.20;;;10.69;47.56;101928.84;5055454;28;20193;-59
2022/04/11 01:37:48;;;;;;;7.83;2.67;;;7.60;60.90;;;10.75;47.81;101920.34;5057409;28;20205;-60
2022/04/11 01:40:15;;;;;;;2.77;1.83;;;7.70;60.80;;;10.79;47.56;101918.28;5057090;28;20296;-60
2022/04/11 01:42:43;;;;;;;2.73;1.50;;;7.70;60.50;;;10.83;47.27;101923.09;5057010;28;20225;-61
2022/04/11 01:45:12;;;;;;;5.97;1.97;;;7.80;60.40;;;10.88;47.85;101923.50;5052507;28;20209;-59
2022/04/11 01:47:40;;;;;;;6.67;2.40;;;7.90;60.40;;;10.93;47.06;101919.56;5036801;28;20228;-59
2022/04/11 01:50:09;;;;;;;5.13;2.40;;;7.90;60.20;;;10.98;47.04;101920.78;5035838;28;20199;-61
2022/04/11 01:52:36;;;;;;;4.77;1.90;;;8.00;60.30;;;11.03;47.10;101920.34;5036925;28;20196;-59
2022/04/11 01:55:06;;;;;;;4.13;2.40;;;8.10;60.10;;;11.07;47.20;101917.28;5036937;28;20547;-60
2022/04/11 01:57:43;;;;;;;6.10;2.30;;;8.10;60.00;;;11.12;47.36;101922.09;5036460;28;20210;-60
2022/04/11 02:00:13;;;;;;;2.73;2.10;;;8.20;59.70;;;11.13;47.17;101921.09;5036050;28;20222;-61
2022/04/11 02:02:40;;;;;;;3.90;2.20;;;8.20;59.50;;;11.13;46.61;101915.81;5044105;28;20316;-60
2022/04/11 02:05:08;;;;;;;5.83;2.40;;;8.20;59.50;;;11.13;47.12;101915.81;5056865;28;20578;-60
2022/04/11 02:07:35;;;;;;;3.07;2.10;;;8.20;59.30;;;11.10;46.66;101910.88;5056448;28;20212;-60
2022/04/11 02:10:05;;;;;;;5.40;2.10;;;8.20;59.20;;;11.07;46.73;101916.44;5056817;28;20266;-61
2022/04/11 02:12:32;;;;;;;6.43;2.90;;;8.20;59.10;;;11.02;46.58;101908.16;5062231;28;20269;-59
2022/04/11 02:14:59;;;;;;;5.33;2.43;;;8.20;59.20;;;11.00;47.44;101918.00;5056592;28;20194;-60
2022/04/11 02:17:27;;;;;;;3.73;2.50;;;8.20;59.60;;;11.02;47.19;101913.41;5055981;28;20206;-61
2022/04/11 02:19:54;;;;;;;3.80;2.10;;;8.20;59.70;;;11.02;47.05;101916.88;5053434;28;20214;-61
2022/04/11 02:22:21;;;;;;;6.77;2.37;;;8.20;59.50;;;11.02;46.72;101918.69;5056099;28;20261;-59
2022/04/11 02:24:49;;;;;;;4.83;2.40;;;8.20;59.40;;;11.02;46.80;101918.69;5056596;28;20619;-60
2022/04/11 02:27:18;;;;;;;4.13;2.90;;;8.10;59.30;;;10.99;46.86;101921.59;5054661;28;20219;-59
2022/04/11 02:29:45;;;;;;;5.63;2.17;;;8.10;59.30;;;10.97;46.67;101919.13;5056005;28;20189;-61
2022/04/11 02:32:13;;;;;;;8.03;3.17;;;8.10;59.40;;;10.92;47.34;101921.38;5055991;28;20186;-61
2022/04/11 02:34:40;;;;;;;5.33;2.90;;;8.10;59.40;;;10.81;47.50;101927.69;5056067;28;20604;-59
2022/04/11 02:37:07;;;;;;;6.63;2.63;;;8.00;59.40;;;10.73;47.47;101924.09;5054155;28;20210;-59
2022/04/11 02:39:35;;;;;;;5.60;2.87;;;8.00;59.40;;;10.63;47.14;101924.16;5056279;28;20583;-60
2022/04/11 02:42:02;;;;;;;5.97;2.70;;;7.90;59.40;;;10.53;47.55;101923.34;5056169;28;20551;-61
2022/04/11 02:44:31;;;;;;;6.37;2.83;;;7.80;59.50;;;10.48;48.36;101923.00;5056228;28;20280;-59
2022/04/11 02:46:58;;;;;;;3.87;2.60;;;7.80;59.70;;;10.44;47.88;101918.97;5055631;28;20209;-59
2022/04/11 02:49:25;;;;;;;3.27;2.17;;;7.70;59.80;;;10.44;48.07;101926.03;5056476;28;20189;-59
2022/04/11 02:51:53;;;;;;;9.23;2.83;;;7.70;59.90;;;10.44;48.17;101924.22;5054089;28;20226;-57
2022/04/11 02:54:20;;;;;;;4.47;2.80;;;7.60;60.00;;;10.46;48.39;101917.00;5056593;28;20279;-61
2022/04/11 02:56:47;;;;;;;6.83;2.70;;;7.60;60.30;;;10.47;48.05;101913.41;5055408;28;20205;-60
2022/04/11 02:59:15;;;;;;;5.73;2.90;;;7.60;60.50;;;10.47;48.13;101912.59;5055480;28;20242;-58
2022/04/11 03:01:43;;;;;;;8.77;2.90;;;7.60;60.70;;;10.47;48.47;101910.78;5055596;28;20667;-59
2022/04/11 03:04:11;;;;;;;4.83;2.67;;;7.60;60.80;;;10.47;47.92;101912.59;5055478;28;20198;-58
2022/04/11 03:06:38;;;;;;;2.50;2.30;;;7.50;60.70;;;10.46;48.34;101910.94;5054992;28;20213;-58
2022/04/11 03:09:08;;;;;;;5.53;2.73;;;7.50;60.70;;;10.43;48.38;101912.06;5049400;28;20195;-58
2022/04/11 03:11:35;;;;;;;6.77;3.10;;;7.50;60.70;;;10.40;48.09;101922.88;5035890;28;20674;-59
2022/04/11 03:14:03;;;;;;;5.40;2.67;;;7.50;61.20;;;10.38;48.35;101911.66;5036314;28;20213;-60
2022/04/11 03:16:31;;;;;;;5.23;2.53;;;7.40;61.10;;;10.34;48.01;101909.47;5036560;28;20191;-57
2022/04/11 03:19:00;;;;;;;4.33;2.73;;;7.40;61.00;;;10.31;48.55;101913.22;5035978;28;20688;-58
2022/04/11 03:21:27;;;;;;;4.37;2.40;;;7.40;61.30;;;10.31;48.13;101918.47;5035984;28;20726;-58
2022/04/11 03:23:54;;;;;;;4.97;2.57;;;7.30;61.20;;;10.29;48.07;101915.16;5036608;28;20198;-58
2022/04/11 03:26:22;;;;;;;4.30;2.47;;;7.30;61.40;;;10.28;48.32;101918.75;5037319;28;20194;-58
2022/04/11 03:28:49;;;;;;;6.53;2.27;;;7.30;61.50;;;10.27;48.42;101914.44;5036151;28;20190;-60
2022/04/11 03:31:17;;;;;;;7.40;2.57;;;7.30;61.50;;;10.26;48.76;101910.19;5034998;28;20191;-60
2022/04/11 03:33:45;;;;;;;5.33;2.47;;;7.30;62.00;;;10.26;48.34;101915.44;5034906;28;20199;-61
2022/04/11 03:36:13;;;;;;;4.93;2.27;;;7.30;61.90;;;10.26;48.58;101920.69;5034742;28;20273;-60
2022/04/11 03:38:41;;;;;;;4.90;2.10;;;7.20;61.70;;;10.24;48.78;101917.38;5034745;28;20221;-59
2022/04/11 03:41:08;;;;;;;6.00;3.17;;;7.20;61.60;;;10.23;48.46;101920.97;5034947;28;20264;-61
2022/04/11 03:43:35;;;;;;;4.37;2.50;;;7.20;61.90;;;10.22;48.35;101919.34;5050428;28;20190;-60
2022/04/11 03:46:03;;;;;;;3.93;2.13;;;7.20;62.10;;;10.22;48.66;101924.59;5053443;28;20231;-62
2022/04/11 03:48:31;;;;;;;3.97;2.50;;;7.20;62.00;;;10.21;48.46;101922.94;5055235;28;20214;-61
2022/04/11 03:50:58;;;;;;;4.83;2.30;;;7.20;62.00;;;10.21;48.96;101922.94;5055449;28;20247;-59
2022/04/11 03:53:34;;;;;;;3.87;2.17;;;7.20;62.00;;;10.20;48.99;101922.09;5054990;28;20671;-61
2022/04/11 03:56:02;;;;;;;6.83;2.50;;;7.20;62.00;;;10.19;48.90;101925.72;5055243;28;20189;-57
2022/04/11 03:58:30;;;;;;;6.90;2.53;;;7.20;62.20;;;10.17;48.78;101927.63;5057102;28;20237;-61
2022/04/11 04:01:00;;;;;;;6.57;3.17;;;7.20;62.40;;;10.18;49.04;101928.47;5060823;28;20225;-60
2022/04/11 04:03:28;;;;;;;3.07;2.60;;;7.10;62.60;;;10.17;49.43;101918.94;5055771;28;20197;-61
2022/04/11 04:05:56;;;;;;;5.33;2.40;;;7.20;62.80;;;10.16;49.13;101930.41;5054827;28;20202;-61
2022/04/11 04:08:23;;;;;;;4.53;2.20;;;7.20;62.70;;;10.15;48.77;101929.56;5053867;28;20209;-59
2022/04/11 04:10:52;;;;;;;6.37;3.20;;;7.20;62.70;;;10.15;49.09;101931.38;5054339;28;20181;-60
2022/04/11 04:13:20;;;;;;;7.53;2.77;;;7.20;63.20;;;10.16;49.30;101930.41;5053983;28;20190;-60
2022/04/11 04:15:47;;;;;;;3.87;3.03;;;7.20;63.00;;;10.14;49.30;101921.84;5052797;28;20204;-60
2022/04/11 04:18:15;;;;;;;7.57;3.10;;;7.20;62.80;;;10.11;49.03;101914.19;5054503;28;20237;-61
2022/04/11 04:20:42;;;;;;;6.17;2.43;;;7.10;62.60;;;10.10;49.22;101909.91;5054198;28;20215;-58
2022/04/11 04:23:10;;;;;;;3.57;2.40;;;7.10;62.80;;;10.08;49.44;101911.84;5054013;28;20213;-59
2022/04/11 04:25:37;;;;;;;5.13;3.00;;;7.10;63.00;;;10.06;49.95;101909.34;5052905;28;20190;-59
2022/04/11 04:28:06;;;;;;;6.00;2.60;;;7.10;63.50;;;10.08;49.64;101911.84;5053678;28;20219;-59
2022/04/11 04:30:33;;;;;;;5.90;3.30;;;7.10;63.80;;;10.10;49.71;101909.91;5054193;28;20186;-60
2022/04/11 04:33:01;;;;;;;4.80;2.70;;;7.20;63.80;;;10.12;50.03;101913.25;5050982;28;20268;-60
2022/04/11 04:35:28;;;;;;;7.63;2.80;;;7.20;63.40;;;10.09;49.42;101910.88;5054018;28;20196;-57
2022/04/11 04:37:56;;;;;;;8.30;3.50;;;7.20;63.10;;;10.06;49.35;101908.53;5052075;28;20224;-60
2022/04/11 04:40:23;;;;;;;3.83;2.83;;;7.10;62.80;;;10.02;49.49;101907.16;5054356;28;20250;-60
2022/04/11 04:42:51;;;;;;;5.70;2.60;;;7.10;62.80;;;9.97;49.79;101914.63;5053925;28;20193;-60
2022/04/11 04:45:20;;;;;;;3.47;2.60;;;7.10;63.70;;;9.95;49.93;101906.06;5054016;28;20242;-60
2022/04/11 04:47:47;;;;;;;7.83;2.80;;;7.00;63.20;;;9.95;49.98;101912.16;5053257;28;20210;-57
2022/04/11 04:50:14;;;;;;;5.13;3.03;;;7.10;63.30;;;9.94;49.64;101902.59;5047753;28;20694;-57
2022/04/11 04:52:42;;;;;;;6.97;3.27;;;7.00;63.30;;;9.90;49.99;101914.38;5033666;28;20272;-59
2022/04/11 04:55:09;;;;;;;6.90;3.13;;;7.00;63.10;;;9.83;50.32;101922.97;5033476;28;20256;-62
2022/04/11 04:57:37;;;;;;;5.53;3.47;;;7.00;63.30;;;9.72;50.71;101912.63;5032343;28;20693;-60
2022/04/11 05:00:07;;;;;;;4.77;2.80;;;6.90;63.30;;;9.67;50.13;101912.19;5033339;28;20207;-60
2022/04/11 05:02:37;;;;;;;7.63;3.30;;;6.90;63.40;;;9.60;50.39;101911.94;5032446;28;20240;-61
2022/04/11 05:05:11;;;;;;;3.47;2.30;;;6.90;63.40;;;9.58;50.42;101908.59;5034458;28;20209;-59
2022/04/11 05:07:39;;;;;;;6.13;3.30;;;6.90;63.60;;;9.63;50.39;101909.00;5042688;28;20223;-59
2022/04/11 05:10:14;;;;;;;3.77;3.37;;;6.80;63.50;;;9.66;50.01;101913.16;5052703;28;20652;-60
2022/04/11 05:12:43;;;;;;;4.20;2.80;;;6.90;63.80;;;9.71;50.61;101909.16;5053325;28;20202;-59
2022/04/11 05:15:12;;;;;;;6.20;3.40;;;6.80;63.80;;;9.75;50.23;101910.53;5053230;28;20290;-59
2022/04/11 05:17:41;;;;;;;4.80;3.20;;;6.80;64.20;;;9.82;50.40;101916.03;5056141;28;20210;-59
2022/04/11 05:20:10;;;;;;;3.00;2.70;;;6.90;64.40;;;9.90;50.25;101929.31;5057424;28;20278;-61
2022/04/11 05:22:38;;;;;;;5.13;3.67;;;6.90;64.40;;;9.95;50.25;101922.69;5055467;28;20224;-60
2022/04/11 05:25:07;;;;;;;3.57;2.87;;;7.00;64.60;;;10.00;50.45;101924.88;5041921;28;20191;-61
2022/04/11 05:27:34;;;;;;;6.27;3.63;;;7.00;64.50;;;10.04;50.63;101927.09;5034992;28;20293;-61
2022/04/11 05:30:05;;;;;;;6.17;3.57;;;7.00;64.40;;;10.12;50.26;101918.53;5034822;28;20636;-62
2022/04/11 05:32:33;;;;;;;7.80;4.07;;;7.10;64.50;;;10.20;49.74;101918.63;5033748;28;20198;-61
2022/04/11 05:35:03;;;;;;;7.67;4.13;;;7.10;64.70;;;10.27;50.19;101927.59;5034799;28;20711;-61
2022/04/11 05:37:30;;;;;;;8.07;4.20;;;7.20;65.00;;;10.36;50.38;101921.50;5035709;28;20270;-62
2022/04/11 05:39:58;;;;;;;8.87;3.90;;;7.30;64.80;;;10.43;50.62;101922.59;5035001;28;20702;-61
2022/04/11 05:42:25;;;;;;;6.67;3.70;;;7.30;65.20;;;10.53;50.10;101920.72;5036134;28;20209;-61
2022/04/11 05:44:52;;;;;;;6.30;3.43;;;7.40;65.00;;;10.60;50.25;101926.25;5033891;28;20269;-60
2022/04/11 05:47:20;;;;;;;6.93;3.60;;;7.50;64.80;;;10.66;49.47;101926.50;5032967;28;20214;-57
2022/04/11 05:49:47;;;;;;;8.87;5.60;;;7.60;64.50;;;10.72;49.31;101920.63;5036487;28;20187;-60
2022/04/11 05:52:24;;;;;;;7.93;5.23;;;7.60;64.30;;;10.78;49.15;101927.97;5035601;28;20205;-61
2022/04/11 05:54:52;;;;;;;6.20;4.93;;;7.60;64.00;;;10.80;49.37;101927.81;5034339;28;20205;-60
2022/04/11 05:57:19;;;;;;;6.53;4.33;;;7.70;64.00;;;10.78;49.96;101927.97;5036333;28;20642;-61
2022/04/11 05:59:46;;;;;;;8.43;5.23;;;7.80;63.90;;;10.78;49.60;101927.97;5033623;28;20686;-59
2022/04/11 06:02:14;;;;;;;8.57;5.30;;;7.80;63.90;;;10.84;49.65;101927.38;5033023;28;20201;-62
2022/04/11 06:04:41;;;;;;;8.50;5.17;;;7.80;63.90;;;10.93;49.39;101930.09;5033247;28;20186;-59
2022/04/11 06:07:08;;;;;;;9.67;5.63;;;7.80;64.10;;;10.98;49.18;101930.50;5032288;28;20206;-61
2022/04/11 06:09:49;;;;;;;6.90;5.03;;;7.90;64.00;;;10.98;49.88;101928.69;5032697;28;20266;-59
2022/04/11 06:12:17;;;;;;;6.07;3.70;;;7.90;63.90;;;11.00;49.66;101925.91;5032615;28;20202;-61
2022/04/11 06:14:44;;;;;;;5.03;3.90;;;8.00;64.60;;;10.98;49.47;101930.50;5032385;28;20207;-60
2022/04/11 06:17:11;;;;;;;10.10;4.27;;;8.00;63.50;;;10.98;49.62;101935.75;5032534;28;20628;-59
2022/04/11 06:19:39;;;;;;;4.63;3.87;;;8.10;63.50;;;10.97;49.04;101937.56;5032294;28;20253;-60
2022/04/11 06:22:11;;;;;;;7.40;3.97;;;8.10;63.30;;;10.96;49.72;101930.63;5035566;28;20191;-60
2022/04/11 06:24:43;;;;;;;9.30;4.30;;;8.10;63.20;;;11.00;49.33;101925.91;5036000;28;20194;-60
2022/04/11 06:27:11;;;;;;;6.03;3.50;;;8.20;63.30;;;11.08;49.87;101933.91;5035694;28;20702;-61
2022/04/11 06:29:40;;;;;;;7.37;4.37;;;8.20;63.30;;;11.14;49.67;101938.56;5036282;28;20191;-58
2022/04/11 06:32:08;;;;;;;8.30;3.83;;;8.20;63.20;;;11.21;49.44;101939.63;5037272;28;20192;-60
2022/04/11 06:34:37;;;;;;;6.03;4.33;;;8.30;63.20;;;11.32;48.91;101947.31;5035557;28;20282;-62
2022/04/11 06:37:05;;;;;;;11.00;4.80;;;8.40;63.30;;;11.46;48.98;101945.00;5035186;28;20224;-61
2022/04/11 06:39:33;;;;;;;6.10;4.43;;;8.40;63.40;;;11.61;48.92;101942.66;5035481;28;20631;-60
2022/04/11 06:42:00;;;;;;;6.40;3.73;;;8.50;63.30;;;11.73;48.25;101945.91;5036017;28;20587;-60
2022/04/11 06:44:30;;;;;;;5.70;3.73;;;8.60;63.10;;;11.78;48.16;101938.38;5035738;28;20191;-60
2022/04/11 06:46:58;;;;;;;6.63;4.07;;;8.70;62.60;;;11.79;47.95;101930.31;5035398;28;20213;-59
2022/04/11 06:49:25;;;;;;;6.63;3.90;;;8.80;62.20;;;11.82;47.62;101939.72;5037142;28;20206;-59
2022/04/11 06:51:57;;;;;;;7.03;4.07;;;8.80;61.80;;;11.79;47.60;101940.84;5035586;28;20237;-61
2022/04/11 06:54:24;;;;;;;10.07;4.20;;;8.90;61.40;;;11.82;47.74;101940.56;5036016;28;20257;-60
2022/04/11 06:56:52;;;;;;;10.47;4.90;;;8.90;61.30;;;11.89;47.66;101936.34;5035471;28;20298;-61
2022/04/11 06:59:19;;;;;;;8.37;4.03;;;8.90;61.50;;;12.00;48.04;101941.38;5035732;28;20190;-62
2022/04/11 07:01:48;;;;;;;6.00;4.03;;;9.00;61.60;;;12.13;47.48;101944.44;5035771;28;20702;-59
2022/04/11 07:04:15;;;;;;;18.07;5.70;;;9.10;61.60;;;12.20;47.30;101942.81;5036460;28;20214;-60
2022/04/11 07:06:43;;;;;;;9.97;4.87;;;9.10;60.90;;;12.21;47.03;101941.84;5037708;28;20286;-60
2022/04/11 07:09:10;;;;;;;5.67;4.23;;;9.20;60.40;;;12.27;47.11;101940.38;5037933;28;20269;-61
2022/04/11 07:11:38;;;;;;;8.37;5.97;;;9.20;60.40;;;12.37;47.04;101937.63;5035328;28;20206;-61
2022/04/11 07:14:06;;;;;;;6.53;4.77;;;9.30;60.80;;;12.51;47.24;101937.88;5035721;28;20274;-59
2022/04/11 07:16:34;;;;;;;5.90;4.57;;;9.40;61.10;;;12.64;46.29;101937.47;5033359;28;20589;-59
2022/04/11 07:19:03;;;;;;;5.00;3.40;;;9.40;60.60;;;12.79;46.23;101936.69;5035304;28;20345;-61
2022/04/11 07:21:30;;;;;;;8.43;4.33;;;9.50;60.60;;;12.99;46.20;101933.78;5039182;28;20209;-61
2022/04/11 07:23:58;;;;;;;17.43;5.13;;;9.60;60.60;;;13.21;46.00;101931.41;5055846;28;20216;-58
2022/04/11 07:26:25;;;;;;;8.43;4.33;;;9.80;60.80;;;13.47;45.61;101932.13;5057845;28;20197;-60
2022/04/11 07:28:52;;;;;;;7.43;4.00;;;10.00;59.80;;;13.76;45.50;101938.75;5059229;28;20273;-62
2022/04/11 07:31:20;;;;;;;5.23;4.07;;;10.10;59.60;;;14.14;45.16;101935.41;5062425;28;20678;-62
2022/04/11 07:33:49;;;;;;;5.17;3.77;;;10.40;59.60;;;14.61;44.42;101938.13;5060850;28;20209;-56
2022/04/11 07:36:17;;;;;;;5.90;4.27;;;10.70;59.50;;;15.11;43.78;101932.41;5063764;28;20218;-56
2022/04/11 07:38:45;;;;;;;4.33;3.37;;;11.00;59.20;;;15.58;43.10;101928.66;5050039;28;20217;-56
2022/04/11 07:41:12;;;;;;;4.33;3.93;;;11.40;58.50;;;16.00;42.33;101930.75;5041546;28;20218;-56
2022/04/11 07:43:39;;;;;;;6.20;4.00;;;11.80;58.20;;;16.34;41.21;101934.75;5040474;28;20187;-56
2022/04/11 07:46:06;;;;;;;9.40;5.73;;;12.10;56.70;;;16.61;41.03;101928.81;5038096;28;20504;-57
2022/04/11 07:48:34;;;;;;;6.90;5.70;;;12.40;56.30;;;17.06;40.16;101933.88;5036081;28;20214;-55
2022/04/11 07:51:02;;;;;;;6.70;4.30;;;12.80;55.70;;;17.53;39.29;101939.53;5035904;28;20270;-56
2022/04/11 07:53:30;;;;;;;9.87;4.40;;;13.10;54.80;;;17.97;38.58;101936.63;5035878;28;20224;-56
2022/04/11 07:55:58;;;;;;;6.03;4.03;;;13.50;53.90;;;18.47;37.76;101938.22;5034667;28;20190;-57
2022/04/11 07:58:26;;;;;;;4.67;4.27;;;13.90;53.20;;;19.12;36.50;101939.53;5034301;28;20219;-54
2022/04/11 08:00:53;;;;;;;4.37;3.93;;;14.30;51.60;;;19.68;35.38;101935.59;5034320;28;20210;-56
2022/04/11 08:03:21;;;;;;;7.97;4.33;;;14.80;50.40;;;20.08;34.85;101934.53;5034802;28;20187;-62
2022/04/11 08:05:48;;;;;;;12.23;10.77;;;15.20;49.40;;;20.23;33.96;101937.00;5034560;28;20548;-61
2022/04/11 08:08:15;;;;;;;9.40;7.77;;;15.60;47.90;;;20.18;33.80;101937.59;5033972;28;20376;-62
2022/04/11 08:10:45;;;;;;;5.60;3.87;;;15.80;47.10;;;20.08;33.35;101931.88;5034287;28;20530;-61
2022/04/11 08:13:12;;;;;;;8.43;4.40;;;15.90;46.30;;;20.08;33.35;101937.22;5050746;28;20286;-62
2022/04/11 08:15:40;;;;;;;8.93;3.97;;;16.00;45.80;;;20.13;32.89;101933.91;5053693;28;20197;-61
2022/04/11 08:18:08;;;;;;;4.90;3.70;;;16.10;44.80;;;20.17;32.92;101937.81;5052135;28;20208;-63
2022/04/11 08:20:35;;;;;;;5.00;3.03;;;16.10;44.90;;;20.20;31.99;101935.56;5053404;28;20210;-62
2022/04/11 08:23:02;;;;;;;8.63;7.73;;;16.10;43.40;;;20.22;31.82;101935.38;5053785;28;20655;-59
2022/04/11 08:25:30;;;;;;;7.60;4.33;;;16.10;43.40;;;20.25;31.72;101935.75;5038088;28;20190;-62
2022/04/11 08:27:58;;;;;;;35.60;4.60;;;16.20;43.70;;;20.27;30.25;101937.41;5048599;28;20217;-62
2022/04/11 08:30:26;;;;;;;8.03;3.10;;;16.20;41.00;;;20.34;30.88;101938.22;5053973;28;20233;-61
2022/04/11 08:32:53;;;;;;;4.80;2.77;;;16.20;41.60;;;20.51;30.66;101934.91;5053305;28;20201;-62
2022/04/11 08:35:22;;;;;;;4.50;2.80;;;16.30;41.50;;;20.76;30.11;101933.16;5053687;28;20207;-63
2022/04/11 08:37:50;;;;;;;5.87;2.60;;;16.30;41.20;;;21.05;30.15;101931.00;5053162;28;20241;-61
2022/04/11 08:40:19;;;;;;;3.03;2.40;;;16.40;41.60;;;21.28;29.95;101934.75;5037268;28;20209;-61
2022/04/11 08:42:49;;;;;;;4.23;2.93;;;16.60;41.80;;;21.53;29.63;101934.81;5033438;28;20277;-62
2022/04/11 08:45:21;;;;;;;6.30;3.30;;;16.70;41.00;;;21.86;28.78;101929.22;5032191;28;20218;-61
2022/04/11 08:47:50;;;;;;;4.03;2.83;;;16.90;39.60;;;22.27;28.53;101932.16;5032937;28;20226;-60
2022/04/11 08:50:18;;;;;;;11.93;9.07;;;17.10;40.80;;;22.71;28.19;101939.09;5033450;28;20273;-61
2022/04/11 08:52:49;;;;;;;6.77;4.67;;;17.40;40.90;;;23.37;27.78;101945.25;5033293;28;20197;-62
2022/04/11 08:55:18;;;;;;;9.30;7.30;;;17.70;41.00;;;24.34;26.68;101945.75;5033981;28;20182;-59
2022/04/11 08:57:45;;;;;;;5.53;3.00;;;18.10;40.90;;;25.33;26.27;101938.09;5033218;28;20214;-61
2022/04/11 09:00:17;;;;;;;2.77;2.50;;;18.60;40.50;;;26.19;24.65;101932.25;5033369;28;20274;-61
2022/04/11 09:02:47;;;;;;;5.37;3.53;;;19.10;39.60;;;26.48;24.51;101932.91;5033661;28;20536;-61
2022/04/11 09:05:20;;;;;;;6.20;4.20;;;19.50;37.10;;;26.41;23.08;101926.84;5033305;28;20268;-61
2022/04/11 09:07:50;;;;;;;6.00;3.40;;;19.90;31.80;;;26.46;23.17;101923.44;5032916;28;20634;-61
2022/04/11 09:10:20;;;;;;;10.87;4.07;;;20.20;33.30;;;26.69;22.14;101921.28;5032901;28;20205;-61
2022/04/11 09:12:50;;;;;;;4.30;3.50;;;20.40;32.50;;;26.98;21.17;101921.09;5034017;28;20201;-60
2022/04/11 09:15:19;;;;;;;5.10;3.27;;;20.50;31.60;;;27.25;20.61;101917.31;5033049;28;20189;-61
2022/04/11 09:17:48;;;;;;;5.03;3.33;;;20.50;30.70;;;27.45;20.79;101919.44;5031885;28;20298;-61
2022/04/11 09:20:18;;;;;;;5.53;3.23;;;20.50;30.50;;;27.58;19.91;101921.69;5032906;28;20191;-62
2022/04/11 09:22:46;;;;;;;4.23;2.70;;;20.50;29.40;;;27.61;19.64;101925.78;5033546;28;20229;-61
2022/04/11 09:25:16;;;;;;;4.93;3.40;;;20.50;29.50;;;27.49;19.87;101917.81;5032704;28;20270;-60
2022/04/11 09:27:45;;;;;;;4.80;3.23;;;20.40;29.80;;;27.30;18.96;101921.94;5032205;28;20297;-63
2022/04/11 09:30:24;;;;;;;3.57;2.87;;;20.30;27.20;;;26.97;19.40;101924.88;5033761;28;20275;-60
2022/04/11 09:33:03;;;;;;;3.17;2.87;;;20.10;28.10;;;26.72;19.85;101923.47;5032747;28;20628;-60
2022/04/11 09:35:32;;;;;;;4.33;3.30;;;20.00;27.90;;;26.50;20.06;101914.56;5033013;28;20217;-60
2022/04/11 09:38:13;;;;;;;6.87;3.17;;;20.10;29.50;;;26.58;20.25;101911.41;5032591;28;20559;-61
2022/04/11 09:40:48;;;;;;;6.40;3.40;;;20.20;28.90;;;26.89;20.30;101925.34;5035875;28;20210;-63
2022/04/11 09:43:18;;;;;;;5.17;3.00;;;20.30;29.50;;;27.20;19.42;101924.56;5032995;28;20268;-59
2022/04/11 09:45:47;;;;;;;6.27;2.70;;;20.40;28.50;;;27.49;18.81;101912.41;5037967;28;20268;-60
2022/04/11 09:48:21;;;;;;;3.07;2.23;;;20.50;28.60;;;27.72;18.24;101916.69;5052172;28;20293;-61
2022/04/11 09:50:50;;;;;;;3.87;2.67;;;20.50;27.10;;;27.94;18.10;101910.06;5052840;28;20265;-60
2022/04/11 09:53:20;;;;;;;3.67;2.80;;;20.60;26.60;;;28.05;17.71;101900.94;5052750;28;20236;-61
2022/04/11 09:55:50;;;;;;;4.47;2.20;;;20.60;26.80;;;27.94;17.64;101910.06;5054305;28;20651;-62
2022/04/11 09:58:19;;;;;;;2.67;2.10;;;20.70;25.90;;;27.94;16.60;101904.63;5056211;28;20221;-60
2022/04/11 10:00:48;;;;;;;4.73;2.70;;;20.70;24.90;;;28.14;17.25;101904.81;5071337;28;20202;-63
2022/04/11 10:03:18;;;;;;;2.20;1.73;;;20.80;26.10;;;28.39;16.90;101905.97;5044773;28;20295;-60
2022/04/11 10:05:49;;;;;;;3.27;1.90;;;20.80;25.70;;;28.42;16.52;101909.00;5036458;28;20582;-62
2022/04/11 10:08:17;;;;;;;3.10;2.00;;;20.90;25.10;;;28.35;16.21;101888.63;5056406;28;20245;-63
2022/04/11 10:10:45;;;;;;;4.70;2.10;;;21.00;24.50;;;28.17;15.50;101888.00;5063176;28;20196;-62
2022/04/11 10:13:14;;;;;;;3.83;1.60;;;20.90;23.00;;;28.10;16.04;101887.44;5059116;28;20226;-62
2022/04/11 10:15:45;;;;;;;2.70;1.67;;;20.80;23.90;;;28.23;15.93;101890.75;5056674;28;20248;-63
2022/04/11 10:18:19;;;;;;;3.70;1.90;;;20.70;23.50;;;28.35;15.73;101883.22;5055771;28;20213;-59
2022/04/11 10:20:55;;;;;;;3.73;1.77;;;20.50;23.30;;;28.32;16.00;101878.31;5040414;28;20229;-62
2022/04/11 10:24:04;;;;;;;7.20;1.80;;;20.50;24.10;;;28.38;16.29;101883.50;5035679;28;20224;-61